createdAt,value
2022-11-06T00:00:48.841Z,100424.66
2022-11-06T00:03:54.854Z,100420.56
2022-11-06T00:06:56.778Z,100409.28
2022-11-06T00:09:58.693Z,100406.81
2022-11-06T00:13:01.627Z,100420.03
2022-11-06T00:16:04.518Z,100427.44
2022-11-06T00:19:07.199Z,100428.34
2022-11-06T00:22:09.039Z,100426.66
2022-11-06T00:25:11.744Z,100433.03
2022-11-06T00:28:13.908Z,100433.28
2022-11-06T00:31:21.711Z,100430.88
2022-11-06T00:34:23.545Z,100424.97
2022-11-06T00:37:25.372Z,100424.38
2022-11-06T00:40:27.157Z,100422.66
2022-11-06T00:43:29.007Z,100428.97
2022-11-06T00:46:31.449Z,100430.75
2022-11-06T00:49:33.233Z,100432.53
2022-11-06T00:52:35.219Z,100441.38
2022-11-06T00:55:37.049Z,100438.75
2022-11-06T00:58:40.059Z,100440.38
2022-11-06T01:01:43.351Z,100432.53
2022-11-06T01:04:45.325Z,100428.72
2022-11-06T01:07:47.183Z,100429.50
2022-11-06T01:10:48.971Z,100432.75
2022-11-06T01:13:53.611Z,100425.59
2022-11-06T01:16:55.643Z,100430.72
2022-11-06T01:19:57.471Z,100430.56
2022-11-06T01:22:59.313Z,100427.91
2022-11-06T01:26:03.234Z,100430.31
2022-11-06T01:29:07.293Z,100432.72
2022-11-06T01:32:09.464Z,100431.84
2022-11-06T01:35:11.279Z,100437.06
2022-11-06T01:38:14.167Z,100429.06
2022-11-06T01:41:23.073Z,100428.34
2022-11-06T01:44:33.789Z,100436.03
2022-11-06T01:47:35.791Z,100437.06
2022-11-06T01:50:38.266Z,100437.91
2022-11-06T01:53:40.462Z,100435.09
2022-11-06T01:56:44.943Z,100432.47
2022-11-06T01:59:47.046Z,100429.75
2022-11-06T02:02:50.270Z,100435.88
2022-11-06T02:05:53.515Z,100433.94
2022-11-06T02:08:55.433Z,100428.72
2022-11-06T02:12:05.647Z,100429.56
2022-11-06T02:15:23.321Z,100436.41
2022-11-06T02:18:38.077Z,100438.97
2022-11-06T02:21:54.165Z,100445.09
2022-11-06T02:24:56.009Z,100448.44
2022-11-06T02:28:04.701Z,100454.41
2022-11-06T02:31:14.150Z,100461.31
2022-11-06T02:34:19.147Z,100469.31
2022-11-06T02:37:28.464Z,100462.94
2022-11-06T02:40:34.792Z,100454.16
2022-11-06T02:43:44.495Z,100456.78
2022-11-06T02:47:02.879Z,100459.53
2022-11-06T02:50:12.767Z,100461.16
2022-11-06T02:53:18.609Z,100459.59
2022-11-06T02:56:25.895Z,100455.09
2022-11-06T02:59:38.574Z,100455.25
2022-11-06T03:02:46.424Z,100459.59
2022-11-06T03:06:09.817Z,100465.97
2022-11-06T03:09:20.611Z,100465.22
2022-11-06T03:12:34.278Z,100465.91
2022-11-06T03:15:45.318Z,100465.75
2022-11-06T03:19:03.785Z,100469.16
2022-11-06T03:22:10.750Z,100474.44
2022-11-06T03:25:21.526Z,100464.03
2022-11-06T03:28:35.093Z,100466.44
2022-11-06T03:31:42.262Z,100463.88
2022-11-06T03:35:09.402Z,100469.16
2022-11-06T03:38:25.351Z,100470.69
2022-11-06T03:41:34.160Z,100465.81
2022-11-06T03:44:41.368Z,100463.88
2022-11-06T03:47:51.753Z,100458.59
2022-11-06T03:51:03.392Z,100457.91
2022-11-06T03:54:14.179Z,100460.38
2022-11-06T03:57:23.878Z,100465.56
2022-11-06T04:00:25.680Z,100458.75
2022-11-06T04:03:33.807Z,100452.84
2022-11-06T04:06:41.517Z,100445.09
2022-11-06T04:10:10.328Z,100453.09
2022-11-06T04:13:30.859Z,100446.44
2022-11-06T04:16:43.119Z,100450.25
2022-11-06T04:19:52.651Z,100455.38
2022-11-06T04:23:05.689Z,100465.69
2022-11-06T04:26:48.550Z,100459.72
2022-11-06T04:30:03.186Z,100460.06
2022-11-06T04:33:19.772Z,100464.84
2022-11-06T04:36:46.925Z,100473.53
2022-11-06T04:40:15.191Z,100475.88
2022-11-06T04:43:37.022Z,100474.06
2022-11-06T04:47:09.124Z,100482.69
2022-11-06T04:50:13.615Z,100491.38
2022-11-06T04:53:17.253Z,100489.34
2022-11-06T04:56:35.240Z,100488.50
2022-11-06T04:59:37.540Z,100494.88
2022-11-06T05:02:39.446Z,100502.41
2022-11-06T05:05:43.156Z,100506.50
2022-11-06T05:08:46.253Z,100502.25
2022-11-06T05:11:48.124Z,100510.09
2022-11-06T05:14:49.994Z,100502.31
2022-11-06T05:17:51.853Z,100506.66
2022-11-06T05:21:14.320Z,100512.81
2022-11-06T05:24:16.241Z,100522.38
2022-11-06T05:27:18.092Z,100526.78
2022-11-06T05:30:19.953Z,100517.78
2022-11-06T05:33:21.845Z,100530.38
2022-11-06T05:36:23.719Z,100532.44
2022-11-06T05:39:25.646Z,100534.84
2022-11-06T05:42:27.530Z,100532.66
2022-11-06T05:45:29.412Z,100527.78
2022-11-06T05:48:31.334Z,100544.44
2022-11-06T05:51:33.132Z,100534.03
2022-11-06T05:54:35.014Z,100540.84
2022-11-06T05:57:36.859Z,100542.31
2022-11-06T06:00:38.735Z,100547.34
2022-11-06T06:03:40.735Z,100547.34
2022-11-06T06:06:42.848Z,100548.88
2022-11-06T06:09:44.760Z,100551.44
2022-11-06T06:12:48.910Z,100556.91
2022-11-06T06:15:50.729Z,100554.19
2022-11-06T06:18:52.643Z,100560.16
2022-11-06T06:21:54.519Z,100553.69
2022-11-06T06:24:56.400Z,100547.63
2022-11-06T06:27:58.520Z,100557.59
2022-11-06T06:31:04.625Z,100550.44
2022-11-06T06:34:06.664Z,100556.75
2022-11-06T06:37:09.055Z,100558.69
2022-11-06T06:40:11.511Z,100567.75
2022-11-06T06:43:13.367Z,100563.59
2022-11-06T06:46:16.070Z,100556.84
2022-11-06T06:49:18.139Z,100556.00
2022-11-06T06:52:19.990Z,100559.13
2022-11-06T06:55:21.810Z,100562.97
2022-11-06T06:58:24.320Z,100566.47
2022-11-06T07:01:26.732Z,100566.03
2022-11-06T07:04:28.613Z,100566.47
2022-11-06T07:07:30.483Z,100561.69
2022-11-06T07:10:33.030Z,100571.09
2022-11-06T07:13:36.311Z,100564.59
2022-11-06T07:16:38.484Z,100570.41
2022-11-06T07:19:40.425Z,100572.09
2022-11-06T07:22:42.283Z,100575.19
2022-11-06T07:25:44.081Z,100566.91
2022-11-06T07:28:45.937Z,100568.69
2022-11-06T07:31:47.729Z,100571.88
2022-11-06T07:34:49.573Z,100568.19
2022-11-06T07:37:51.437Z,100563.94
2022-11-06T07:40:53.365Z,100566.50
2022-11-06T07:43:55.135Z,100571.78
2022-11-06T07:46:57.013Z,100576.81
2022-11-06T07:49:58.955Z,100575.09
2022-11-06T07:53:04.455Z,100581.09
2022-11-06T07:56:06.973Z,100576.47
2022-11-06T07:59:08.817Z,100584.16
2022-11-06T08:02:13.941Z,100585.59
2022-11-06T08:05:15.919Z,100583.56
2022-11-06T08:08:18.278Z,100579.03
2022-11-06T08:11:20.124Z,100582.88
2022-11-06T08:14:22.010Z,100582.97
2022-11-06T08:17:23.877Z,100590.97
2022-11-06T08:20:26.222Z,100585.69
2022-11-06T08:23:28.859Z,100581.16
2022-11-06T08:26:30.957Z,100585.44
2022-11-06T08:29:35.900Z,100586.13
2022-11-06T08:32:41.885Z,100587.31
2022-11-06T08:35:43.996Z,100592.59
2022-11-06T08:38:48.631Z,100585.75
2022-11-06T08:41:50.433Z,100588.41
2022-11-06T08:44:52.233Z,100588.16
2022-11-06T08:47:54.228Z,100593.44
2022-11-06T08:50:56.242Z,100590.53
2022-11-06T08:53:58.869Z,100590.88
2022-11-06T08:57:00.804Z,100583.28
2022-11-06T09:00:03.082Z,100587.38
2022-11-06T09:03:07.700Z,100578.75
2022-11-06T09:06:09.686Z,100579.75
2022-11-06T09:09:11.564Z,100576.81
2022-11-06T09:12:13.451Z,100582.31
2022-11-06T09:15:15.533Z,100587.38
2022-11-06T09:18:17.370Z,100588.16
2022-11-06T09:21:19.238Z,100590.19
2022-11-06T09:24:37.176Z,100589.16
2022-11-06T09:27:48.670Z,100584.00
2022-11-06T09:30:50.729Z,100582.88
2022-11-06T09:33:52.645Z,100583.47
2022-11-06T09:36:54.446Z,100584.50
2022-11-06T09:39:57.769Z,100580.16
2022-11-06T09:43:50.161Z,100579.22
2022-11-06T09:46:47.471Z,100573.81
2022-11-06T09:49:55.060Z,100570.41
2022-11-06T09:53:05.847Z,100561.78
2022-11-06T09:56:12.831Z,100566.72
2022-11-06T09:59:18.281Z,100558.41
2022-11-06T10:02:32.827Z,100548.69
2022-11-06T10:05:38.137Z,100549.25
2022-11-06T10:08:43.971Z,100548.41
2022-11-06T10:12:20.597Z,100562.13
2022-11-06T10:16:09.031Z,100562.91
2022-11-06T10:19:40.213Z,100560.66
2022-11-06T10:23:05.000Z,100560.09
2022-11-06T10:26:15.082Z,100558.88
2022-11-06T10:29:25.614Z,100555.94
2022-11-06T10:32:42.255Z,100554.91
2022-11-06T10:36:10.134Z,100564.38
2022-11-06T10:39:26.930Z,100562.38
2022-11-06T10:42:38.278Z,100554.91
2022-11-06T10:45:44.678Z,100548.00
2022-11-06T10:48:53.023Z,100547.16
2022-11-06T10:52:28.396Z,100547.16
2022-11-06T10:55:31.033Z,100547.34
2022-11-06T10:58:34.571Z,100543.34
2022-11-06T11:01:38.542Z,100543.66
2022-11-06T11:04:41.100Z,100545.72
2022-11-06T11:07:45.020Z,100548.94
2022-11-06T11:11:03.954Z,100551.41
2022-11-06T11:14:06.485Z,100548.94
2022-11-06T11:17:09.093Z,100546.38
2022-11-06T11:20:34.579Z,100547.03
2022-11-06T11:23:36.414Z,100548.09
2022-11-06T11:26:44.955Z,100544.75
2022-11-06T11:29:50.133Z,100539.66
2022-11-06T11:32:56.261Z,100537.00
2022-11-06T11:35:59.158Z,100538.06
2022-11-06T11:39:01.073Z,100539.28
2022-11-06T11:42:27.674Z,100548.09
2022-11-06T11:45:29.547Z,100539.09
2022-11-06T11:48:51.476Z,100543.84
2022-11-06T11:51:53.751Z,100528.13
2022-11-06T11:54:55.584Z,100534.06
2022-11-06T11:58:01.580Z,100527.34
2022-11-06T12:01:05.463Z,100526.97
2022-11-06T12:04:15.508Z,100525.47
2022-11-06T12:07:32.769Z,100520.53
2022-11-06T12:10:44.984Z,100526.78
2022-11-06T12:14:21.898Z,100525.19
2022-11-06T12:17:24.680Z,100525.38
2022-11-06T12:20:51.060Z,100525.19
2022-11-06T12:24:03.444Z,100532.66
2022-11-06T12:27:11.848Z,100532.09
2022-11-06T12:30:17.645Z,100534.94
2022-11-06T12:33:59.645Z,100531.16
2022-11-06T12:37:04.067Z,100530.38
2022-11-06T12:40:31.788Z,100531.72
2022-11-06T12:43:51.175Z,100527.81
2022-11-06T12:47:26.408Z,100524.31
2022-11-06T12:50:31.405Z,100518.91
2022-11-06T12:53:51.230Z,100518.44
2022-11-06T12:57:18.017Z,100513.06
2022-11-06T13:00:22.775Z,100509.06
2022-11-06T13:03:38.640Z,100506.41
2022-11-06T13:06:55.381Z,100518.44
2022-11-06T13:10:03.221Z,100514.66
2022-11-06T13:13:29.452Z,100504.72
2022-11-06T13:16:46.499Z,100505.75
2022-11-06T13:20:03.388Z,100510.59
2022-11-06T13:23:26.851Z,100507.47
2022-11-06T13:26:45.500Z,100505.56
2022-11-06T13:29:48.261Z,100507.84
2022-11-06T13:33:02.776Z,100514.75
2022-11-06T13:36:05.942Z,100508.59
2022-11-06T13:39:26.622Z,100505.09
2022-11-06T13:42:42.379Z,100507.09
2022-11-06T13:46:02.536Z,100504.06
2022-11-06T13:49:39.752Z,100510.50
2022-11-06T13:53:07.735Z,100512.38
2022-11-06T13:56:34.463Z,100514.94
2022-11-06T13:59:51.615Z,100516.34
2022-11-06T14:03:17.249Z,100502.16
2022-11-06T14:06:22.069Z,100504.22
2022-11-06T14:09:27.596Z,100511.59
2022-11-06T14:12:29.740Z,100507.34
2022-11-06T14:15:41.783Z,100509.81
2022-11-06T14:18:43.832Z,100513.13
2022-11-06T14:21:52.019Z,100503.19
2022-11-06T14:25:01.020Z,100515.88
2022-11-06T14:28:05.795Z,100509.16
2022-11-06T14:31:15.046Z,100507.28
2022-11-06T14:34:30.492Z,100507.38
2022-11-06T14:37:35.030Z,100512.38
2022-11-06T14:40:38.674Z,100518.63
2022-11-06T14:43:50.841Z,100517.69
2022-11-06T14:46:59.752Z,100521.09
2022-11-06T14:50:06.327Z,100515.88
2022-11-06T14:53:21.858Z,100522.50
2022-11-06T14:56:27.110Z,100522.41
2022-11-06T14:59:40.521Z,100517.88
2022-11-06T15:02:43.705Z,100520.44
2022-11-06T15:05:51.048Z,100522.78
2022-11-06T15:09:15.008Z,100520.91
2022-11-06T15:12:16.824Z,100519.00
2022-11-06T15:15:19.963Z,100523.38
2022-11-06T15:18:24.861Z,100525.06
2022-11-06T15:21:31.828Z,100534.06
2022-11-06T15:24:38.613Z,100527.53
2022-11-06T15:27:45.402Z,100523.09
2022-11-06T15:30:56.649Z,100530.00
2022-11-06T15:34:05.848Z,100529.06
2022-11-06T15:37:24.267Z,100529.06
2022-11-06T15:40:32.662Z,100536.91
2022-11-06T15:43:36.597Z,100540.59
2022-11-06T15:46:52.454Z,100537.38
2022-11-06T15:50:17.882Z,100534.81
2022-11-06T15:53:29.304Z,100539.19
2022-11-06T15:56:34.715Z,100539.28
2022-11-06T15:59:36.649Z,100533.97
2022-11-06T16:02:49.279Z,100534.06
2022-11-06T16:05:53.046Z,100534.81
2022-11-06T16:08:56.894Z,100527.16
2022-11-06T16:11:59.294Z,100530.75
2022-11-06T16:15:01.674Z,100529.63
2022-11-06T16:18:05.639Z,100534.91
2022-11-06T16:21:20.102Z,100528.84
2022-11-06T16:24:23.751Z,100524.13
2022-11-06T16:27:27.180Z,100520.63
2022-11-06T16:30:30.952Z,100528.00
2022-11-06T16:33:32.970Z,100526.41
2022-11-06T16:37:02.047Z,100524.31
2022-11-06T16:40:06.550Z,100531.03
2022-11-06T16:43:16.366Z,100514.06
2022-11-06T16:46:18.398Z,100531.22
2022-11-06T16:49:49.038Z,100529.59
2022-11-06T16:52:54.759Z,100520.78
2022-11-06T16:56:02.241Z,100519.94
2022-11-06T16:59:09.587Z,100526.88
2022-11-06T17:02:23.058Z,100523.34
2022-11-06T17:05:33.773Z,100517.28
2022-11-06T17:08:38.212Z,100523.34
2022-11-06T17:11:40.119Z,100521.75
2022-11-06T17:14:45.297Z,100525.06
2022-11-06T17:17:49.619Z,100523.81
2022-11-06T17:20:56.357Z,100519.94
2022-11-06T17:24:12.258Z,100521.84
2022-11-06T17:27:20.035Z,100518.16
2022-11-06T17:30:21.840Z,100520.53
2022-11-06T17:33:23.872Z,100522.13
2022-11-06T17:36:30.017Z,100526.41
2022-11-06T17:39:32.853Z,100529.22
2022-11-06T17:42:37.410Z,100520.16
2022-11-06T17:45:42.278Z,100517.69
2022-11-06T17:48:44.084Z,100511.63
2022-11-06T17:51:50.297Z,100502.72
2022-11-06T17:54:52.216Z,100516.44
2022-11-06T17:57:54.574Z,100509.63
2022-11-06T18:01:05.054Z,100508.69
2022-11-06T18:04:07.385Z,100504.91
2022-11-06T18:07:09.668Z,100501.22
2022-11-06T18:10:11.674Z,100503.75
2022-11-06T18:13:14.738Z,100504.41
2022-11-06T18:16:23.036Z,100508.00
2022-11-06T18:19:26.073Z,100507.34
2022-11-06T18:22:27.990Z,100507.25
2022-11-06T18:25:29.797Z,100504.03
2022-11-06T18:28:31.730Z,100503.75
2022-11-06T18:31:34.286Z,100512.00
2022-11-06T18:34:36.123Z,100501.22
2022-11-06T18:37:38.006Z,100503.38
2022-11-06T18:40:41.477Z,100502.34
2022-11-06T18:43:50.879Z,100510.69
2022-11-06T18:46:52.844Z,100505.38
2022-11-06T18:49:54.678Z,100504.63
2022-11-06T18:52:58.295Z,100506.03
2022-11-06T18:56:00.630Z,100509.91
2022-11-06T18:59:02.661Z,100510.88
2022-11-06T19:02:04.773Z,100512.47
2022-11-06T19:05:07.319Z,100509.31
2022-11-06T19:08:09.257Z,100513.97
2022-11-06T19:11:14.030Z,100524.06
2022-11-06T19:14:15.869Z,100514.69
2022-11-06T19:17:17.738Z,100506.84
2022-11-06T19:20:21.015Z,100509.28
2022-11-06T19:23:22.903Z,100503.41
2022-11-06T19:26:31.089Z,100512.03
2022-11-06T19:29:33.562Z,100510.25
2022-11-06T19:32:35.452Z,100511.69
2022-11-06T19:35:37.374Z,100512.63
2022-11-06T19:38:39.292Z,100511.75
2022-11-06T19:41:41.166Z,100515.53
2022-11-06T19:44:42.952Z,100512.72
2022-11-06T19:47:44.836Z,100509.13
2022-11-06T19:50:59.603Z,100511.38
2022-11-06T19:54:02.025Z,100513.94
2022-11-06T19:57:28.815Z,100517.13
2022-11-06T20:00:25.718Z,100513.03
2022-11-06T20:03:28.632Z,100516.03
2022-11-06T20:06:30.320Z,100518.38
2022-11-06T20:09:34.439Z,100513.41
2022-11-06T20:12:36.360Z,100519.81
2022-11-06T20:15:38.190Z,100525.19
2022-11-06T20:18:40.107Z,100520.16
2022-11-06T20:21:42.001Z,100522.06
2022-11-06T20:24:43.916Z,100514.38
2022-11-06T20:27:46.501Z,100517.53
2022-11-06T20:30:49.147Z,100518.19
2022-11-06T20:33:52.184Z,100511.78
2022-11-06T20:36:54.416Z,100514.34
2022-11-06T20:39:56.306Z,100523.13
2022-11-06T20:42:58.169Z,100522.19
2022-11-06T20:46:01.865Z,100521.16
2022-11-06T20:49:03.837Z,100525.34
2022-11-06T20:52:14.663Z,100522.78
2022-11-06T20:55:17.493Z,100521.16
2022-11-06T20:58:19.351Z,100525.41
2022-11-06T21:01:24.185Z,100520.78
2022-11-06T21:04:26.131Z,100510.88
2022-11-06T21:07:28.013Z,100520.53
2022-11-06T21:10:29.957Z,100517.78
2022-11-06T21:13:32.070Z,100521.97
2022-11-06T21:16:36.155Z,100519.13
2022-11-06T21:19:37.993Z,100508.81
2022-11-06T21:22:39.844Z,100514.88
2022-11-06T21:25:45.178Z,100515.81
2022-11-06T21:28:47.628Z,100515.81
2022-11-06T21:31:50.153Z,100509.75
2022-11-06T21:34:52.001Z,100502.84
2022-11-06T21:37:53.834Z,100508.31
2022-11-06T21:40:55.728Z,100506.63
2022-11-06T21:43:57.750Z,100504.53
2022-11-06T21:46:59.595Z,100502.47
2022-11-06T21:50:01.445Z,100502.28
2022-11-06T21:53:21.712Z,100503.81
2022-11-06T21:56:26.203Z,100505.53
2022-11-06T21:59:29.644Z,100509.78
2022-11-06T22:02:31.606Z,100511.41
2022-11-06T22:05:33.687Z,100515.00
2022-11-06T22:08:37.473Z,100509.69
2022-11-06T22:11:42.381Z,100505.44
2022-11-06T22:14:44.179Z,100514.91
2022-11-06T22:17:46.030Z,100509.41
2022-11-06T22:20:48.079Z,100501.38
2022-11-06T22:23:50.677Z,100505.81
2022-11-06T22:26:55.433Z,100506.88
2022-11-06T22:29:57.376Z,100509.69
2022-11-06T22:32:59.154Z,100508.25
2022-11-06T22:36:02.171Z,100515.34
2022-11-06T22:39:04.671Z,100519.50
2022-11-06T22:42:06.647Z,100516.09
2022-11-06T22:45:08.933Z,100516.34
2022-11-06T22:48:10.923Z,100524.22
2022-11-06T22:51:15.437Z,100523.34
2022-11-06T22:54:17.669Z,100525.91
2022-11-06T22:57:19.645Z,100517.31
2022-11-06T23:00:22.779Z,100524.47
2022-11-06T23:03:27.014Z,100517.38
2022-11-06T23:06:29.723Z,100514.66
2022-11-06T23:09:31.579Z,100522.41
2022-11-06T23:12:34.254Z,100524.78
2022-11-06T23:15:36.420Z,100524.03
2022-11-06T23:18:39.062Z,100519.59
2022-11-06T23:21:42.330Z,100522.31
2022-11-06T23:24:44.295Z,100532.91
2022-11-06T23:27:49.851Z,100523.63
2022-11-06T23:30:51.903Z,100531.75
2022-11-06T23:33:53.730Z,100533.47
2022-11-06T23:36:55.533Z,100525.78
2022-11-06T23:39:57.441Z,100522.00
2022-11-06T23:42:59.324Z,100523.53
2022-11-06T23:46:01.136Z,100526.09
2022-11-06T23:49:03.037Z,100522.16
2022-11-06T23:52:05.100Z,100514.88
2022-11-06T23:55:07.367Z,100520.06
2022-11-06T23:58:09.271Z,100508.53
